Time;durP1;ratioP1;P1;durP2;ratioP2;P2;SDS_P1;SDS_P2;PMS_P1;PMS_P2;Temp;Humidity;BMP_temperature;BMP_pressure;BME280_temperature;BME280_humidity;BME280_pressure;Samples;Min_cycle;Max_cycle;Signal;HPM_P1;HPM_P2
2024/03/23 00:02:11;;;;;;;16.58;3.13;;;7.10;99.90;;;;;;4988728;28;20034;-74
2024/03/23 00:04:38;;;;;;;8.75;1.98;;;7.10;99.90;;;;;;4988098;28;20089;-74
2024/03/23 00:07:05;;;;;;;14.00;2.80;;;7.10;99.90;;;;;;4988568;28;20098;-74
2024/03/23 00:09:31;;;;;;;9.35;2.38;;;7.10;99.90;;;;;;4988287;28;20035;-74
2024/03/23 00:11:58;;;;;;;11.63;2.58;;;7.10;99.90;;;;;;4970969;28;20037;-74
2024/03/23 00:14:26;;;;;;;10.20;2.38;;;7.10;99.90;;;;;;4971251;28;20027;-74
2024/03/23 00:16:52;;;;;;;7.20;2.28;;;7.00;99.90;;;;;;4971024;28;20038;-74
2024/03/23 00:19:19;;;;;;;12.63;2.60;;;7.00;99.90;;;;;;4988345;28;20086;-75
2024/03/23 00:21:46;;;;;;;13.32;2.55;;;7.00;99.90;;;;;;4970995;28;20064;-74
2024/03/23 00:24:13;;;;;;;11.23;2.95;;;6.90;99.90;;;;;;4971214;28;20111;-74
2024/03/23 00:26:40;;;;;;;13.18;2.78;;;6.90;99.90;;;;;;4988190;28;20056;-75
2024/03/23 00:29:06;;;;;;;14.95;2.60;;;7.00;99.90;;;;;;4971132;28;20030;-75
2024/03/23 00:31:33;;;;;;;14.50;2.70;;;6.90;99.90;;;;;;4988147;28;20042;-74
2024/03/23 00:33:59;;;;;;;18.13;3.38;;;7.00;99.90;;;;;;4988279;28;20099;-75
2024/03/23 00:36:26;;;;;;;12.90;3.00;;;7.00;99.90;;;;;;4970843;28;20054;-74
2024/03/23 00:38:52;;;;;;;11.85;2.40;;;7.00;99.90;;;;;;4988059;28;20031;-75
2024/03/23 00:41:19;;;;;;;15.63;2.65;;;7.00;99.90;;;;;;4987962;28;20109;-74
2024/03/23 00:43:46;;;;;;;14.40;3.65;;;7.00;99.90;;;;;;4988126;28;20102;-74
2024/03/23 00:46:12;;;;;;;15.05;2.92;;;7.00;99.90;;;;;;4988023;28;20137;-74
2024/03/23 00:48:39;;;;;;;11.82;2.78;;;7.00;99.90;;;;;;4987888;28;20027;-74
2024/03/23 00:51:05;;;;;;;12.35;2.85;;;6.90;99.90;;;;;;4987718;28;20097;-74
2024/03/23 00:53:31;;;;;;;14.55;2.28;;;7.00;99.90;;;;;;4970419;28;20030;-74
2024/03/23 00:55:57;;;;;;;11.50;2.58;;;7.00;99.90;;;;;;4954666;28;20284;-74
2024/03/23 00:58:23;;;;;;;10.85;2.92;;;7.00;99.90;;;;;;4987809;28;20109;-75
2024/03/23 01:00:48;;;;;;;11.75;2.38;;;7.00;99.90;;;;;;4987603;28;20054;-75
2024/03/23 01:03:14;;;;;;;10.75;2.53;;;7.00;99.90;;;;;;4954687;28;20030;-75
2024/03/23 01:05:40;;;;;;;11.25;2.50;;;7.00;99.90;;;;;;4970687;28;20038;-75
2024/03/23 01:08:06;;;;;;;18.33;3.25;;;7.00;99.90;;;;;;4938447;28;20084;-75
2024/03/23 01:10:31;;;;;;;13.48;2.63;;;7.10;99.90;;;;;;4970247;28;20033;-74
2024/03/23 01:12:57;;;;;;;9.23;2.40;;;7.00;99.90;;;;;;4987397;28;20023;-74
2024/03/23 01:15:22;;;;;;;12.93;2.33;;;7.10;99.90;;;;;;4938601;28;20030;-74
2024/03/23 01:17:48;;;;;;;12.98;3.00;;;7.00;99.90;;;;;;4987445;28;20299;-74
2024/03/23 01:20:14;;;;;;;13.13;2.65;;;7.10;99.90;;;;;;4954094;28;20034;-75
2024/03/23 01:22:40;;;;;;;9.05;2.30;;;7.10;99.90;;;;;;4969896;28;20192;-76
2024/03/23 01:25:06;;;;;;;13.23;2.75;;;7.20;99.90;;;;;;4953903;28;20026;-75
2024/03/23 01:27:31;;;;;;;11.60;2.30;;;7.20;99.90;;;;;;4953699;28;20342;-75
2024/03/23 01:29:57;;;;;;;16.40;2.70;;;7.20;99.90;;;;;;4938171;28;20159;-75
2024/03/23 01:32:22;;;;;;;12.13;2.45;;;7.20;99.90;;;;;;4970076;28;20050;-74
2024/03/23 01:34:48;;;;;;;18.58;3.05;;;7.20;99.90;;;;;;4938085;28;20033;-73
2024/03/23 01:37:14;;;;;;;13.98;2.72;;;7.20;99.90;;;;;;4969946;28;20054;-74
2024/03/23 01:39:39;;;;;;;13.15;2.70;;;7.20;99.90;;;;;;4986993;28;20304;-73
2024/03/23 01:42:05;;;;;;;15.15;3.25;;;7.20;99.90;;;;;;4987125;28;20026;-74
2024/03/23 01:44:31;;;;;;;12.50;2.55;;;7.10;99.90;;;;;;4969884;28;20034;-74
2024/03/23 01:46:56;;;;;;;15.35;3.50;;;7.10;99.90;;;;;;4953822;28;20102;-74
2024/03/23 01:49:22;;;;;;;11.05;2.25;;;7.00;99.90;;;;;;4969820;28;20031;-75
2024/03/23 01:51:48;;;;;;;14.50;3.25;;;7.00;99.90;;;;;;4953847;28;20042;-73
2024/03/23 01:54:14;;;;;;;12.50;2.42;;;7.00;99.90;;;;;;4969671;28;20027;-73
2024/03/23 01:56:39;;;;;;;13.63;3.42;;;6.90;99.90;;;;;;4953851;28;20031;-73
2024/03/23 01:59:05;;;;;;;9.93;2.45;;;6.90;99.90;;;;;;4969684;28;20184;-73
2024/03/23 02:01:31;;;;;;;13.38;2.72;;;7.00;99.90;;;;;;4953752;28;20402;-73
2024/03/23 02:03:57;;;;;;;11.70;2.17;;;7.00;99.90;;;;;;4969689;28;20041;-73
2024/03/23 02:06:23;;;;;;;15.85;2.72;;;7.00;99.90;;;;;;4969596;28;20030;-73
2024/03/23 02:08:49;;;;;;;15.63;2.80;;;6.90;99.90;;;;;;4969238;28;20034;-73
2024/03/23 02:11:15;;;;;;;11.93;3.22;;;6.90;99.90;;;;;;4953231;28;20038;-73
2024/03/23 02:13:41;;;;;;;12.27;2.50;;;6.90;99.90;;;;;;4953087;28;20034;-73
2024/03/23 02:16:06;;;;;;;13.20;2.47;;;6.90;99.90;;;;;;4969239;28;20054;-74
2024/03/23 02:18:35;;;;;;;20.98;3.50;;;6.90;99.90;;;;;;4969654;28;20041;-74
2024/03/23 02:21:01;;;;;;;13.25;2.80;;;6.90;99.90;;;;;;4969551;28;20085;-74
2024/03/23 02:23:26;;;;;;;12.77;2.25;;;6.90;99.90;;;;;;4953372;28;20030;-74
2024/03/23 02:25:55;;;;;;;13.63;2.90;;;6.80;99.90;;;;;;4953349;28;20072;-74
2024/03/23 02:28:22;;;;;;;9.88;2.10;;;6.80;99.90;;;;;;4969726;28;20026;-74
2024/03/23 02:30:50;;;;;;;12.88;3.13;;;6.80;99.90;;;;;;4953503;28;20054;-75
2024/03/23 02:33:16;;;;;;;11.85;1.98;;;6.90;99.90;;;;;;4937657;28;20038;-74
2024/03/23 02:35:42;;;;;;;9.93;2.60;;;7.00;99.90;;;;;;4969461;28;20093;-74
2024/03/23 02:38:07;;;;;;;11.10;2.72;;;7.00;99.90;;;;;;4954010;28;20030;-74
2024/03/23 02:40:33;;;;;;;9.75;2.63;;;7.00;99.90;;;;;;4953958;29;20046;-74
2024/03/23 02:42:59;;;;;;;12.55;2.13;;;7.00;99.90;;;;;;4969782;29;20078;-74
2024/03/23 02:45:24;;;;;;;11.75;2.63;;;7.00;99.90;;;;;;4970451;29;20380;-74
2024/03/23 02:47:51;;;;;;;9.32;2.00;;;7.00;99.90;;;;;;4969617;29;20201;-74
2024/03/23 02:50:21;;;;;;;16.77;2.78;;;7.00;99.90;;;;;;4953827;29;20031;-74
2024/03/23 02:52:47;;;;;;;9.73;2.22;;;7.00;99.90;;;;;;4953579;29;20054;-75
2024/03/23 02:55:13;;;;;;;10.77;2.15;;;6.90;99.90;;;;;;4949225;28;20027;-76
2024/03/23 02:57:38;;;;;;;12.43;2.42;;;6.90;99.90;;;;;;4972979;28;20039;-73
2024/03/23 03:00:06;;;;;;;11.75;2.58;;;6.80;99.90;;;;;;4990026;28;20082;-75
2024/03/23 03:02:31;;;;;;;12.18;2.00;;;6.80;99.90;;;;;;4972660;28;20218;-76
2024/03/23 03:04:57;;;;;;;11.30;2.45;;;6.80;99.90;;;;;;4972833;28;20069;-74
2024/03/23 03:07:23;;;;;;;8.98;1.90;;;6.80;99.90;;;;;;4940833;28;20023;-76
2024/03/23 03:09:49;;;;;;;15.38;2.63;;;6.90;99.90;;;;;;4972795;28;20124;-76
2024/03/23 03:12:14;;;;;;;9.63;2.20;;;6.90;99.90;;;;;;4940450;28;20050;-74
2024/03/23 03:14:40;;;;;;;14.35;3.17;;;6.90;99.90;;;;;;4956487;28;20054;-74
2024/03/23 03:17:06;;;;;;;11.93;2.78;;;6.90;99.90;;;;;;4989144;28;20200;-75
2024/03/23 03:19:32;;;;;;;14.10;2.35;;;6.90;99.90;;;;;;4972599;28;20073;-75
2024/03/23 03:21:58;;;;;;;11.80;2.35;;;6.80;99.90;;;;;;4940491;28;20315;-76
2024/03/23 03:24:23;;;;;;;13.13;2.40;;;6.80;99.90;;;;;;4972371;28;20030;-76
2024/03/23 03:26:49;;;;;;;8.95;2.22;;;6.80;99.90;;;;;;4989543;28;20325;-76
2024/03/23 03:29:15;;;;;;;16.10;2.95;;;6.90;99.90;;;;;;4972457;28;20180;-76
2024/03/23 03:31:41;;;;;;;16.90;3.60;;;7.00;99.90;;;;;;4956447;28;20042;-76
2024/03/23 03:34:07;;;;;;;16.95;3.08;;;7.00;99.90;;;;;;4989274;28;20082;-76
2024/03/23 03:36:33;;;;;;;7.45;2.55;;;7.00;99.90;;;;;;4972201;28;20034;-76
2024/03/23 03:38:58;;;;;;;11.77;2.65;;;7.00;99.90;;;;;;4956362;28;20065;-76
2024/03/23 03:41:25;;;;;;;14.68;2.30;;;7.00;99.90;;;;;;4972255;28;20069;-76
2024/03/23 03:43:50;;;;;;;10.98;2.35;;;7.00;99.90;;;;;;4989258;28;20031;-75
2024/03/23 03:46:16;;;;;;;10.13;2.38;;;7.10;99.90;;;;;;4971910;28;20098;-76
2024/03/23 03:48:41;;;;;;;13.45;2.55;;;7.00;99.90;;;;;;4939902;28;20251;-76
2024/03/23 03:51:07;;;;;;;9.55;2.42;;;7.00;99.90;;;;;;4955834;28;20034;-76
2024/03/23 03:53:33;;;;;;;12.23;2.22;;;7.00;99.90;;;;;;4956089;28;20054;-75
2024/03/23 03:56:02;;;;;;;10.68;2.58;;;7.00;99.90;;;;;;4989053;28;20053;-76
2024/03/23 03:58:27;;;;;;;11.98;2.17;;;6.90;99.90;;;;;;4988697;28;20034;-76
2024/03/23 04:00:53;;;;;;;12.02;2.20;;;6.90;99.90;;;;;;4956009;28;20204;-76
2024/03/23 04:03:19;;;;;;;14.32;2.30;;;6.80;99.90;;;;;;4955753;28;20085;-76
2024/03/23 04:05:53;;;;;;;10.32;2.15;;;6.80;99.90;;;;;;4955785;28;20023;-75
2024/03/23 04:08:18;;;;;;;10.02;1.80;;;6.90;99.90;;;;;;4971621;28;20135;-76
2024/03/23 04:10:45;;;;;;;13.50;2.75;;;6.80;99.90;;;;;;4955575;28;20304;-76
2024/03/23 04:13:11;;;;;;;14.82;2.95;;;6.80;99.90;;;;;;4971720;28;20045;-76
2024/03/23 04:15:37;;;;;;;11.18;2.40;;;6.80;99.90;;;;;;4988707;28;20015;-76
2024/03/23 04:18:02;;;;;;;9.82;2.03;;;6.80;99.90;;;;;;4971528;28;20041;-76
2024/03/23 04:20:28;;;;;;;12.10;1.83;;;6.80;99.90;;;;;;4939530;28;20037;-75
2024/03/23 04:22:54;;;;;;;14.65;2.25;;;6.80;99.90;;;;;;4955279;28;20037;-76
2024/03/23 04:25:19;;;;;;;15.27;3.25;;;6.70;99.90;;;;;;4988416;28;20046;-76
2024/03/23 04:27:45;;;;;;;14.70;2.85;;;6.70;99.90;;;;;;4955427;28;20054;-75
2024/03/23 04:30:12;;;;;;;11.60;2.60;;;6.70;99.90;;;;;;4971464;28;20047;-75
2024/03/23 04:32:37;;;;;;;11.65;2.70;;;6.70;99.90;;;;;;4955226;28;20106;-75
2024/03/23 04:35:06;;;;;;;14.35;2.95;;;6.70;99.90;;;;;;4971207;28;20031;-75
2024/03/23 04:37:33;;;;;;;11.88;2.78;;;6.70;99.90;;;;;;4971671;28;20043;-75
2024/03/23 04:40:01;;;;;;;14.02;2.03;;;6.70;99.90;;;;;;4987608;28;20042;-75
2024/03/23 04:42:27;;;;;;;17.52;2.58;;;6.70;99.90;;;;;;4955326;28;20034;-76
2024/03/23 04:44:53;;;;;;;8.60;2.20;;;6.70;99.90;;;;;;4955062;28;20041;-75
2024/03/23 04:47:18;;;;;;;12.35;2.20;;;6.70;99.90;;;;;;4970904;28;20102;-76
2024/03/23 04:49:44;;;;;;;11.60;2.22;;;6.60;99.90;;;;;;4954999;28;20034;-75
2024/03/23 04:52:10;;;;;;;10.35;2.40;;;6.70;99.90;;;;;;4970844;28;20034;-74
2024/03/23 04:54:35;;;;;;;13.63;2.30;;;6.60;99.90;;;;;;4987528;28;20072;-74
2024/03/23 04:57:01;;;;;;;11.23;2.05;;;6.60;99.90;;;;;;4954705;28;20018;-74
2024/03/23 04:59:26;;;;;;;11.70;1.88;;;6.70;99.90;;;;;;4938809;28;20033;-75
2024/03/23 05:01:52;;;;;;;11.23;2.33;;;6.70;99.90;;;;;;4938188;28;20113;-74
2024/03/23 05:04:18;;;;;;;7.47;2.10;;;6.70;99.90;;;;;;4987661;28;20027;-74
2024/03/23 05:06:43;;;;;;;11.65;2.45;;;6.70;99.90;;;;;;4954568;28;20034;-74
2024/03/23 05:09:11;;;;;;;14.10;2.67;;;6.80;99.90;;;;;;4954429;28;20082;-75
2024/03/23 05:11:38;;;;;;;12.70;2.90;;;6.80;99.90;;;;;;4939160;28;20215;-75
2024/03/23 05:14:04;;;;;;;11.93;1.90;;;6.80;99.90;;;;;;4970555;28;20295;-74
2024/03/23 05:16:29;;;;;;;14.35;2.35;;;6.80;99.90;;;;;;4938451;28;20030;-75
2024/03/23 05:18:55;;;;;;;10.65;2.33;;;6.80;99.90;;;;;;4954427;28;20027;-74
2024/03/23 05:21:21;;;;;;;9.85;2.10;;;6.90;99.90;;;;;;4954417;28;20022;-74
2024/03/23 05:23:47;;;;;;;13.73;2.58;;;6.80;99.90;;;;;;4970197;28;20042;-74
2024/03/23 05:26:13;;;;;;;12.13;2.30;;;6.80;99.90;;;;;;4970218;28;20086;-75
2024/03/23 05:28:39;;;;;;;13.55;2.53;;;6.80;99.90;;;;;;4954202;28;20073;-75
2024/03/23 05:31:04;;;;;;;15.45;3.15;;;6.80;99.90;;;;;;4938120;28;20101;-75
2024/03/23 05:33:30;;;;;;;17.98;3.25;;;6.80;99.90;;;;;;4970098;28;20031;-75
2024/03/23 05:35:59;;;;;;;12.65;3.13;;;6.80;99.90;;;;;;4987199;28;20019;-74
2024/03/23 05:38:25;;;;;;;14.00;3.05;;;6.80;99.90;;;;;;4938451;28;20276;-75
2024/03/23 05:41:00;;;;;;;11.40;2.83;;;6.80;99.90;;;;;;4969973;28;20043;-75
2024/03/23 05:43:26;;;;;;;14.38;3.00;;;6.80;99.90;;;;;;4970047;28;20058;-74
2024/03/23 05:45:59;;;;;;;12.40;3.10;;;6.80;99.90;;;;;;4969696;28;20098;-75
2024/03/23 05:48:25;;;;;;;14.77;2.47;;;6.80;99.90;;;;;;4986984;28;20044;-74
2024/03/23 05:50:51;;;;;;;12.57;3.22;;;6.80;99.90;;;;;;4986833;28;20042;-74
2024/03/23 05:53:17;;;;;;;14.43;2.45;;;6.80;99.90;;;;;;4969782;28;20038;-73
2024/03/23 05:55:43;;;;;;;13.80;2.50;;;6.80;99.90;;;;;;4953835;28;20055;-74
2024/03/23 05:58:08;;;;;;;12.65;2.70;;;6.80;99.90;;;;;;4953638;28;20026;-73
2024/03/23 06:00:34;;;;;;;14.95;2.35;;;6.80;99.90;;;;;;4969791;28;20309;-73
2024/03/23 06:03:00;;;;;;;14.27;2.75;;;6.80;99.90;;;;;;4953751;28;20027;-74
2024/03/23 06:05:26;;;;;;;10.18;2.42;;;6.80;99.90;;;;;;4969586;28;20038;-74
2024/03/23 06:07:52;;;;;;;16.23;2.78;;;6.80;99.90;;;;;;4969586;28;20038;-74
2024/03/23 06:10:18;;;;;;;11.43;2.20;;;6.80;99.90;;;;;;4969794;28;20076;-74
2024/03/23 06:12:43;;;;;;;15.75;2.50;;;6.80;99.90;;;;;;4969369;28;20038;-74
2024/03/23 06:15:10;;;;;;;12.18;2.63;;;6.90;99.90;;;;;;4969526;28;20136;-74
2024/03/23 06:17:39;;;;;;;12.68;2.75;;;7.00;99.90;;;;;;4969648;28;20245;-74
2024/03/23 06:20:08;;;;;;;10.00;2.47;;;7.00;99.90;;;;;;4969634;28;20298;-75
2024/03/23 06:22:34;;;;;;;15.75;2.40;;;7.00;99.90;;;;;;4954567;28;20041;-74
2024/03/23 06:24:59;;;;;;;8.68;2.20;;;7.00;99.90;;;;;;4969705;28;20058;-74
2024/03/23 06:27:25;;;;;;;12.57;2.28;;;7.00;99.90;;;;;;4969466;28;20363;-73
2024/03/23 06:29:51;;;;;;;17.00;2.67;;;7.00;99.90;;;;;;4969447;28;20123;-74
2024/03/23 06:32:17;;;;;;;9.85;2.30;;;7.10;99.90;;;;;;4969078;28;20038;-74
2024/03/23 06:34:42;;;;;;;12.52;2.42;;;7.10;99.90;;;;;;4953100;28;20188;-74
2024/03/23 06:37:09;;;;;;;11.85;2.20;;;7.10;99.90;;;;;;4969240;28;20038;-74
2024/03/23 06:39:36;;;;;;;12.82;2.55;;;7.10;99.90;;;;;;4969253;28;20031;-74
2024/03/23 06:42:02;;;;;;;11.40;2.17;;;7.10;99.90;;;;;;4937648;28;20109;-74
2024/03/23 06:44:27;;;;;;;13.13;2.80;;;7.10;99.90;;;;;;4986148;28;20027;-75
2024/03/23 06:46:53;;;;;;;15.07;2.22;;;7.10;99.90;;;;;;4986133;28;20035;-76
2024/03/23 06:49:19;;;;;;;14.45;3.03;;;7.00;99.90;;;;;;4937117;28;20046;-75
2024/03/23 06:51:45;;;;;;;15.02;2.83;;;7.10;99.90;;;;;;4937223;28;20073;-75
2024/03/23 06:54:11;;;;;;;9.15;2.05;;;7.00;99.90;;;;;;4969376;28;20015;-75
2024/03/23 06:56:36;;;;;;;13.20;2.88;;;7.10;99.90;;;;;;4969199;28;20287;-75
2024/03/23 06:59:02;;;;;;;11.77;2.10;;;7.10;99.90;;;;;;4969072;28;20034;-75
2024/03/23 07:01:28;;;;;;;12.45;2.20;;;7.10;99.90;;;;;;4969220;28;20307;-75
2024/03/23 07:03:55;;;;;;;9.98;2.25;;;7.10;99.90;;;;;;4969156;28;20248;-75
2024/03/23 07:06:20;;;;;;;11.55;2.20;;;7.20;99.90;;;;;;4952973;28;20083;-75
2024/03/23 07:08:46;;;;;;;11.60;2.45;;;7.30;99.90;;;;;;4953047;28;20035;-76
2024/03/23 07:11:11;;;;;;;7.22;1.85;;;7.40;99.90;;;;;;4953018;28;20211;-76
2024/03/23 07:13:37;;;;;;;20.15;9.25;;;7.40;99.90;;;;;;4953039;28;20038;-76
2024/03/23 07:16:03;;;;;;;12.60;2.90;;;7.40;99.90;;;;;;4986200;28;20026;-75
2024/03/23 07:18:29;;;;;;;11.88;2.50;;;7.50;99.90;;;;;;4968949;28;20102;-76
2024/03/23 07:20:57;;;;;;;15.85;2.60;;;7.50;99.90;;;;;;4986054;28;20184;-76
2024/03/23 07:23:24;;;;;;;12.95;2.30;;;7.50;99.90;;;;;;4936735;28;20034;-77
2024/03/23 07:26:04;;;;;;;11.65;2.60;;;7.50;99.90;;;;;;4955939;28;20062;-75
2024/03/23 07:28:33;;;;;;;9.48;1.80;;;7.50;99.90;;;;;;4956713;28;20105;-76
2024/03/23 07:31:02;;;;;;;9.27;2.03;;;7.50;99.90;;;;;;4957231;28;20184;-76
2024/03/23 07:33:28;;;;;;;12.32;1.98;;;7.60;99.90;;;;;;4956166;28;20291;-76
2024/03/23 07:35:54;;;;;;;9.48;1.80;;;7.60;99.90;;;;;;4956227;28;20038;-76
2024/03/23 07:38:20;;;;;;;14.55;2.92;;;7.60;99.90;;;;;;4972031;28;20031;-76
2024/03/23 07:40:45;;;;;;;10.20;2.00;;;7.70;99.90;;;;;;4952442;29;20061;-76
2024/03/23 07:43:11;;;;;;;9.02;2.40;;;7.70;99.90;;;;;;4968724;29;20187;-76
2024/03/23 07:45:37;;;;;;;11.88;2.50;;;7.70;99.90;;;;;;4968404;29;20039;-74
2024/03/23 07:48:04;;;;;;;9.45;1.95;;;7.70;99.90;;;;;;4952739;29;20276;-75
2024/03/23 07:50:30;;;;;;;11.90;2.50;;;7.70;99.90;;;;;;4968550;29;20121;-76
2024/03/23 07:52:55;;;;;;;13.85;2.58;;;7.70;99.90;;;;;;4968579;29;20047;-76
2024/03/23 07:55:21;;;;;;;9.80;2.38;;;7.70;99.90;;;;;;4968308;29;20027;-76
2024/03/23 07:57:46;;;;;;;13.95;2.83;;;7.80;99.90;;;;;;4968649;29;20098;-76
2024/03/23 08:00:13;;;;;;;7.97;2.35;;;7.90;99.90;;;;;;4971481;28;20039;-76
2024/03/23 08:02:39;;;;;;;14.27;2.03;;;8.00;99.90;;;;;;4955693;28;20037;-76
2024/03/23 08:05:04;;;;;;;12.65;2.97;;;8.00;99.90;;;;;;4988650;28;20038;-76
2024/03/23 08:07:30;;;;;;;9.73;2.25;;;8.00;99.90;;;;;;4955640;28;20039;-76
2024/03/23 08:09:56;;;;;;;10.93;3.20;;;8.00;99.90;;;;;;4939056;28;20022;-76
2024/03/23 08:12:21;;;;;;;7.90;1.85;;;8.00;99.90;;;;;;4971319;28;20058;-76
2024/03/23 08:14:47;;;;;;;9.52;2.10;;;8.00;99.90;;;;;;4971363;28;20063;-76
2024/03/23 08:17:13;;;;;;;11.38;2.05;;;8.10;99.90;;;;;;4971284;28;20267;-76
2024/03/23 08:19:38;;;;;;;5.80;1.65;;;8.00;99.90;;;;;;4955366;28;20054;-74
2024/03/23 08:22:04;;;;;;;8.98;1.80;;;8.00;99.90;;;;;;4971362;28;20094;-75
2024/03/23 08:24:30;;;;;;;12.65;2.72;;;7.90;99.90;;;;;;4939734;28;20039;-76
2024/03/23 08:26:56;;;;;;;10.18;2.10;;;8.00;99.90;;;;;;4955229;28;20042;-75
2024/03/23 08:29:21;;;;;;;8.52;2.53;;;8.10;99.90;;;;;;4988458;28;20047;-76
2024/03/23 08:31:47;;;;;;;13.27;2.63;;;8.60;99.90;;;;;;4987987;28;20026;-75
2024/03/23 08:34:13;;;;;;;12.25;2.08;;;8.70;99.90;;;;;;4970849;28;20067;-75
2024/03/23 08:36:38;;;;;;;12.80;1.95;;;8.80;99.90;;;;;;4969798;28;20045;-75
2024/03/23 08:39:04;;;;;;;9.25;1.88;;;8.60;99.90;;;;;;4970821;28;20053;-75
2024/03/23 08:41:29;;;;;;;9.77;2.58;;;8.40;99.90;;;;;;4970558;28;20327;-75
2024/03/23 08:43:55;;;;;;;9.77;2.10;;;8.30;99.90;;;;;;4987754;28;20049;-76
2024/03/23 08:46:21;;;;;;;8.77;2.13;;;8.40;99.90;;;;;;4987425;28;20027;-76
2024/03/23 08:48:48;;;;;;;7.95;1.83;;;8.30;99.90;;;;;;4987847;28;20034;-76
2024/03/23 08:51:15;;;;;;;8.07;1.73;;;8.40;99.90;;;;;;4987344;28;20089;-75
2024/03/23 08:53:41;;;;;;;5.13;1.52;;;8.50;99.90;;;;;;4970531;28;20054;-75
2024/03/23 08:56:07;;;;;;;4.82;1.20;;;8.90;99.90;;;;;;4970301;28;20035;-75
2024/03/23 08:58:33;;;;;;;5.13;1.23;;;9.60;99.90;;;;;;4970370;28;20030;-76
2024/03/23 09:01:06;;;;;;;7.55;1.92;;;9.70;99.90;;;;;;4970251;28;20235;-76
2024/03/23 09:03:32;;;;;;;7.75;1.30;;;10.10;99.90;;;;;;4987277;28;20122;-76
2024/03/23 09:05:58;;;;;;;9.23;2.03;;;9.80;99.90;;;;;;4987231;28;20031;-76
2024/03/23 09:08:24;;;;;;;6.93;1.40;;;9.60;99.90;;;;;;4969870;28;20034;-75
2024/03/23 09:10:50;;;;;;;6.75;1.48;;;9.40;99.90;;;;;;4986890;28;20111;-75
2024/03/23 09:13:16;;;;;;;8.40;1.80;;;9.10;99.90;;;;;;4987270;28;20283;-77
2024/03/23 09:15:51;;;;;;;6.22;1.42;;;10.10;99.90;;;;;;4986842;28;20025;-75
2024/03/23 09:18:17;;;;;;;6.60;1.50;;;10.80;99.90;;;;;;4953912;28;20034;-76
2024/03/23 09:20:42;;;;;;;4.97;1.60;;;10.90;99.90;;;;;;4970002;28;20155;-76
2024/03/23 09:23:08;;;;;;;6.97;1.67;;;10.40;99.90;;;;;;4953964;28;20158;-76
2024/03/23 09:25:38;;;;;;;8.80;1.83;;;9.90;99.90;;;;;;4969803;28;20062;-75
2024/03/23 09:28:04;;;;;;;;;;;9.60;99.90;;;;;;4954545;28;20022;-75
2024/03/23 09:30:30;;;;;;;7.90;1.67;;;9.40;99.90;;;;;;4969803;28;19953;-75
2024/03/23 09:32:57;;;;;;;9.20;1.38;;;10.40;99.90;;;;;;4986480;28;20047;-75
2024/03/23 09:35:22;;;;;;;8.80;1.52;;;11.20;99.90;;;;;;4986791;28;20222;-76
2024/03/23 09:37:48;;;;;;;5.45;2.05;;;11.90;99.90;;;;;;4969713;28;20030;-75
2024/03/23 09:40:14;;;;;;;8.20;1.73;;;12.00;99.90;;;;;;4953386;28;20065;-76
2024/03/23 09:42:39;;;;;;;7.05;1.75;;;11.50;99.90;;;;;;4953842;28;20179;-76
2024/03/23 09:45:09;;;;;;;6.80;2.03;;;11.00;99.90;;;;;;4953750;28;20050;-76
2024/03/23 09:47:34;;;;;;;10.03;1.50;;;10.60;99.90;;;;;;4969483;28;20035;-76
2024/03/23 09:50:00;;;;;;;6.35;1.33;;;10.10;99.90;;;;;;4953587;28;20302;-75
2024/03/23 09:52:26;;;;;;;8.65;1.85;;;10.00;99.90;;;;;;4969339;28;20047;-75
2024/03/23 09:54:52;;;;;;;4.65;1.40;;;9.80;99.90;;;;;;4969361;28;20045;-75
2024/03/23 09:57:17;;;;;;;9.60;1.83;;;9.70;99.90;;;;;;4937881;28;20098;-75
2024/03/23 09:59:43;;;;;;;3.60;1.30;;;9.50;99.90;;;;;;4953293;28;20082;-76
2024/03/23 10:02:10;;;;;;;4.78;1.23;;;9.50;99.90;;;;;;4969361;28;20034;-75
2024/03/23 10:04:40;;;;;;;5.60;1.50;;;9.50;99.90;;;;;;4937450;28;20038;-73
2024/03/23 10:07:17;;;;;;;10.85;2.13;;;9.70;99.90;;;;;;4968803;28;20234;-75
2024/03/23 10:09:43;;;;;;;6.60;1.50;;;10.20;99.90;;;;;;4953945;28;20034;-76
2024/03/23 10:12:16;;;;;;;10.02;2.25;;;12.10;99.90;;;;;;4937189;28;20110;-75
2024/03/23 10:14:41;;;;;;;10.32;2.22;;;12.50;99.90;;;;;;4954047;28;20033;-76
2024/03/23 10:17:25;;;;;;;5.65;1.48;;;12.20;99.90;;;;;;4953009;28;20030;-76
2024/03/23 10:19:52;;;;;;;4.63;1.40;;;11.50;99.90;;;;;;4953833;28;20082;-76
2024/03/23 10:22:21;;;;;;;7.63;1.77;;;10.90;99.90;;;;;;4952773;28;20035;-76
2024/03/23 10:24:47;;;;;;;7.22;1.55;;;10.40;99.90;;;;;;4953259;28;20061;-73
2024/03/23 10:27:20;;;;;;;4.05;1.20;;;10.40;99.90;;;;;;4952527;28;20027;-75
2024/03/23 10:29:49;;;;;;;5.05;1.30;;;10.90;99.90;;;;;;4969542;28;20039;-77
2024/03/23 10:32:15;;;;;;;3.33;1.30;;;11.40;99.90;;;;;;4968807;28;20031;-75
2024/03/23 10:34:41;;;;;;;3.67;1.40;;;11.10;99.90;;;;;;4968698;28;20090;-75
2024/03/23 10:37:07;;;;;;;35.45;22.13;;;10.70;99.90;;;;;;4952401;28;20031;-74
2024/03/23 10:39:40;;;;;;;8.02;1.73;;;10.70;99.90;;;;;;4936722;28;21059;-75
2024/03/23 10:42:07;;;;;;;5.40;1.42;;;10.50;99.90;;;;;;4968631;28;20098;-74
2024/03/23 10:44:33;;;;;;;4.47;1.65;;;10.30;99.90;;;;;;4952938;28;20031;-75
2024/03/23 10:46:59;;;;;;;5.63;1.38;;;10.50;99.90;;;;;;4936883;28;20034;-75
2024/03/23 10:49:32;;;;;;;6.78;3.03;;;10.60;99.90;;;;;;4968640;28;20058;-76
2024/03/23 10:51:58;;;;;;;7.28;1.90;;;12.70;99.90;;;;;;4968722;28;20039;-75
2024/03/23 10:54:25;;;;;;;4.60;1.40;;;13.40;99.90;;;;;;4968866;28;20232;-75
2024/03/23 10:56:53;;;;;;;4.95;1.33;;;13.40;99.90;;;;;;4968693;28;20030;-75
2024/03/23 10:59:19;;;;;;;3.80;1.13;;;13.10;99.90;;;;;;4953860;28;20046;-75
2024/03/23 11:01:56;;;;;;;3.88;1.52;;;12.50;99.90;;;;;;4972475;28;20041;-75
2024/03/23 11:04:38;;;;;;;6.55;1.98;;;11.80;99.90;;;;;;4989187;28;20037;-76
2024/03/23 11:07:36;;;;;;;5.40;2.38;;;12.00;99.90;;;;;;4956497;28;20362;-75
2024/03/23 11:10:02;;;;;;;4.15;1.80;;;13.00;99.90;;;;;;4955620;28;20050;-75
2024/03/23 11:12:31;;;;;;;4.82;2.17;;;14.80;99.90;;;;;;4956333;28;20095;-76
2024/03/23 11:15:05;;;;;;;7.40;1.55;;;16.10;99.90;;;;;;4988987;28;20334;-76
2024/03/23 11:17:30;;;;;;;4.13;1.80;;;16.70;99.90;;;;;;4989147;28;20108;-76
2024/03/23 11:20:03;;;;;;;5.22;1.55;;;16.70;99.90;;;;;;4955920;28;20276;-77
2024/03/23 11:22:39;;;;;;;4.40;1.45;;;16.30;99.90;;;;;;4988830;28;20027;-77
2024/03/23 11:25:12;;;;;;;4.30;1.23;;;16.20;99.90;;;;;;4988473;28;20038;-77
2024/03/23 11:27:38;;;;;;;7.22;1.80;;;15.50;99.90;;;;;;4955783;28;20023;-76
2024/03/23 11:30:15;;;;;;;5.07;1.30;;;14.50;99.90;;;;;;4955843;28;20060;-76
2024/03/23 11:32:41;;;;;;;4.00;1.10;;;15.90;99.90;;;;;;4956338;28;20100;-76
2024/03/23 11:35:07;;;;;;;5.80;1.30;;;15.90;99.90;;;;;;4955929;28;20034;-77
2024/03/23 11:37:32;;;;;;;7.85;1.80;;;16.00;99.90;;;;;;4988775;28;20082;-77
2024/03/23 11:39:58;;;;;;;7.95;1.65;;;16.50;99.90;;;;;;4971875;28;20047;-77
2024/03/23 11:42:23;;;;;;;9.15;2.63;;;17.30;99.90;;;;;;4988913;28;20045;-77
2024/03/23 11:44:49;;;;;;;12.73;2.40;;;17.80;99.90;;;;;;4971455;28;20027;-76
2024/03/23 11:47:15;;;;;;;6.25;1.70;;;18.00;99.90;;;;;;4971806;28;20037;-77
2024/03/23 11:49:40;;;;;;;6.78;1.55;;;18.20;99.90;;;;;;4988974;28;20035;-77
2024/03/23 11:52:07;;;;;;;4.65;1.50;;;18.40;99.90;;;;;;4955703;28;20035;-76
2024/03/23 11:54:33;;;;;;;5.35;1.38;;;18.70;99.90;;;;;;4988714;28;20053;-77
2024/03/23 11:56:59;;;;;;;5.45;1.55;;;19.10;99.90;;;;;;4955619;28;20034;-77
2024/03/23 11:59:45;;;;;;;8.50;1.75;;;18.00;99.90;;;;;;4987951;28;20043;-77
2024/03/23 12:02:13;;;;;;;5.82;1.60;;;15.90;99.90;;;;;;4987807;28;20284;-77
2024/03/23 12:04:39;;;;;;;7.85;1.70;;;14.40;99.90;;;;;;4971198;28;20026;-77
2024/03/23 12:07:21;;;;;;;4.22;1.70;;;14.60;99.90;;;;;;4970902;28;20022;-77
2024/03/23 12:10:01;;;;;;;6.20;1.95;;;16.00;99.90;;;;;;4970877;28;20045;-77
2024/03/23 12:12:27;;;;;;;4.63;1.75;;;16.30;99.90;;;;;;4973265;28;20188;-77
2024/03/23 12:15:03;;;;;;;7.65;2.35;;;15.50;99.90;;;;;;4987861;28;20030;-77
2024/03/23 12:17:29;;;;;;;3.85;1.33;;;14.70;99.90;;;;;;4987969;28;20154;-77
2024/03/23 12:19:54;;;;;;;9.82;2.05;;;14.20;99.90;;;;;;4970804;28;20026;-77
2024/03/23 12:22:24;;;;;;;6.30;1.40;;;15.00;99.90;;;;;;4970980;28;20030;-76
2024/03/23 12:24:49;;;;;;;5.80;2.00;;;16.70;99.90;;;;;;4970755;28;20078;-77
2024/03/23 12:27:15;;;;;;;8.40;2.08;;;17.50;99.90;;;;;;4939044;28;20109;-78
2024/03/23 12:29:47;;;;;;;8.70;2.42;;;18.50;99.90;;;;;;4955244;28;20027;-78
2024/03/23 12:32:13;;;;;;;11.23;2.20;;;17.20;99.90;;;;;;4940422;28;20031;-78
2024/03/23 12:34:39;;;;;;;6.35;2.15;;;15.90;99.90;;;;;;4987680;28;20035;-76
2024/03/23 12:37:06;;;;;;;6.05;1.60;;;15.30;99.90;;;;;;4954590;28;20022;-76
2024/03/23 12:39:32;;;;;;;9.35;2.22;;;16.10;99.90;;;;;;4970597;28;20061;-76
2024/03/23 12:41:57;;;;;;;6.97;1.58;;;15.60;99.90;;;;;;4970566;28;20039;-75
2024/03/23 12:44:23;;;;;;;10.13;1.38;;;14.80;99.90;;;;;;4970602;28;20037;-77
2024/03/23 12:46:49;;;;;;;6.43;1.50;;;14.20;99.90;;;;;;4970631;28;20069;-75